createdAt,value
2018-05-17T00:01:54.964Z,98.30
2018-05-17T00:04:22.567Z,98.30
2018-05-17T00:06:50.073Z,98.80
2018-05-17T00:09:17.613Z,98.60
2018-05-17T00:11:45.939Z,99.10
2018-05-17T00:14:13.481Z,99.10
2018-05-17T00:16:41.009Z,99.50
2018-05-17T00:19:08.578Z,99.50
2018-05-17T00:21:36.915Z,99.20
2018-05-17T00:24:04.479Z,99.20
2018-05-17T00:26:32.038Z,99.20
2018-05-17T00:28:59.597Z,99.20
2018-05-17T00:31:27.174Z,99.20
2018-05-17T00:33:54.717Z,99.60
2018-05-17T00:36:22.299Z,99.70
2018-05-17T00:38:49.862Z,99.60
2018-05-17T00:41:17.408Z,99.90
2018-05-17T00:43:44.955Z,99.90
2018-05-17T00:46:13.262Z,99.90
2018-05-17T00:48:40.810Z,99.90
2018-05-17T00:51:08.379Z,99.90
2018-05-17T00:53:35.955Z,99.90
2018-05-17T00:56:03.534Z,99.90
2018-05-17T00:58:31.089Z,99.90
2018-05-17T01:00:58.655Z,99.90
2018-05-17T01:03:26.190Z,99.90
2018-05-17T01:05:53.802Z,99.90
2018-05-17T01:08:21.346Z,99.90
2018-05-17T01:10:48.890Z,99.90
2018-05-17T01:13:16.460Z,99.90
2018-05-17T01:15:44.029Z,99.90
2018-05-17T01:18:11.575Z,99.90
2018-05-17T01:20:39.126Z,99.90
2018-05-17T01:23:07.466Z,99.90
2018-05-17T01:25:35.031Z,99.90
2018-05-17T01:28:02.599Z,99.90
2018-05-17T01:30:30.143Z,99.90
2018-05-17T01:32:57.700Z,99.90
2018-05-17T01:35:25.241Z,99.90
2018-05-17T01:38:04.692Z,99.90
2018-05-17T01:40:32.239Z,99.90
2018-05-17T01:42:59.795Z,99.90
2018-05-17T01:45:27.361Z,99.90
2018-05-17T01:47:54.910Z,99.90
2018-05-17T01:50:23.234Z,99.90
2018-05-17T01:52:50.803Z,99.90
2018-05-17T01:55:18.370Z,99.90
2018-05-17T01:57:45.926Z,99.90
2018-05-17T02:00:13.582Z,99.90
2018-05-17T02:02:41.081Z,99.90
2018-05-17T02:05:08.657Z,99.90
2018-05-17T02:07:36.216Z,99.90
2018-05-17T02:10:03.858Z,99.90
2018-05-17T02:12:31.407Z,99.90
2018-05-17T02:14:58.968Z,99.90
2018-05-17T02:17:26.543Z,99.90
2018-05-17T02:19:54.115Z,99.90
2018-05-17T02:22:21.710Z,99.90
2018-05-17T02:24:49.259Z,99.90
2018-05-17T02:27:16.810Z,99.90
2018-05-17T02:29:44.368Z,99.90
2018-05-17T02:32:11.922Z,99.90
2018-05-17T02:34:39.491Z,99.90
2018-05-17T02:37:07.029Z,99.90
2018-05-17T02:39:34.584Z,99.90
2018-05-17T02:42:02.897Z,99.90
2018-05-17T02:44:30.484Z,99.90
2018-05-17T02:46:58.041Z,99.70
2018-05-17T02:49:25.600Z,99.70
2018-05-17T02:51:53.251Z,99.80
2018-05-17T02:54:20.761Z,99.50
2018-05-17T02:56:48.317Z,99.90
2018-05-17T02:59:15.861Z,99.80
2018-05-17T03:01:43.418Z,99.90
2018-05-17T03:04:11.027Z,99.80
2018-05-17T03:06:38.603Z,99.90
2018-05-17T03:09:06.939Z,99.90
2018-05-17T03:11:34.563Z,99.90
2018-05-17T03:14:02.111Z,99.80
2018-05-17T03:16:30.442Z,99.50
2018-05-17T03:18:57.977Z,99.50
2018-05-17T03:21:26.287Z,99.90
2018-05-17T03:23:53.833Z,99.90
2018-05-17T03:26:21.378Z,99.90
2018-05-17T03:28:49.710Z,99.70
2018-05-17T03:31:17.250Z,99.70
2018-05-17T03:33:44.794Z,99.90
2018-05-17T03:36:12.343Z,99.90
2018-05-17T03:38:40.681Z,99.90
2018-05-17T03:41:08.247Z,99.90
2018-05-17T03:43:35.818Z,99.90
2018-05-17T03:46:03.378Z,99.90
2018-05-17T03:48:30.920Z,99.90
2018-05-17T03:50:58.486Z,99.90
2018-05-17T03:53:26.039Z,99.90
2018-05-17T03:55:53.607Z,99.70
2018-05-17T03:58:21.174Z,99.90
2018-05-17T04:01:00.454Z,99.90
2018-05-17T04:03:39.849Z,99.90
2018-05-17T04:06:19.159Z,99.90
2018-05-17T04:08:46.703Z,99.70
2018-05-17T04:11:16.055Z,99.60
2018-05-17T04:13:43.607Z,99.50
2018-05-17T04:16:11.158Z,99.90
2018-05-17T04:18:38.705Z,99.90
2018-05-17T04:21:07.012Z,99.90
2018-05-17T04:23:34.548Z,99.90
2018-05-17T04:26:02.137Z,99.90
2018-05-17T04:28:29.701Z,99.90
2018-05-17T04:30:57.270Z,99.90
2018-05-17T04:33:24.814Z,99.90
2018-05-17T04:35:52.358Z,99.90
2018-05-17T04:38:20.661Z,99.90
2018-05-17T04:40:48.231Z,99.90
2018-05-17T04:43:15.807Z,99.60
2018-05-17T04:45:43.355Z,99.20
2018-05-17T04:48:10.893Z,98.80
2018-05-17T04:50:38.424Z,99.00
2018-05-17T04:53:05.975Z,98.70
2018-05-17T04:55:33.517Z,98.80
2018-05-17T04:58:01.094Z,98.60
2018-05-17T05:00:28.629Z,98.40
2018-05-17T05:02:56.954Z,97.50
2018-05-17T05:05:24.520Z,97.50
2018-05-17T05:07:52.058Z,97.60
2018-05-17T05:10:19.639Z,97.70
2018-05-17T05:12:47.188Z,97.10
2018-05-17T05:15:14.746Z,96.40
2018-05-17T05:17:42.294Z,96.60
2018-05-17T05:20:10.630Z,96.40
2018-05-17T05:22:38.202Z,96.30
2018-05-17T05:25:05.775Z,96.20
2018-05-17T05:27:33.360Z,96.40
2018-05-17T05:30:01.693Z,96.40
2018-05-17T05:32:29.244Z,96.30
2018-05-17T05:34:56.815Z,96.50
2018-05-17T05:37:24.371Z,96.30
2018-05-17T05:39:51.920Z,96.60
2018-05-17T05:42:19.497Z,95.90
2018-05-17T05:44:47.056Z,96.60
2018-05-17T05:47:14.615Z,96.90
2018-05-17T05:49:42.215Z,96.00
2018-05-17T05:52:09.758Z,95.70
2018-05-17T05:54:37.299Z,96.00
2018-05-17T05:57:04.893Z,94.90
2018-05-17T05:59:32.472Z,94.60
2018-05-17T06:02:00.041Z,94.10
2018-05-17T06:04:27.660Z,93.90
2018-05-17T06:06:55.206Z,94.00
2018-05-17T06:09:23.542Z,94.20
2018-05-17T06:11:51.096Z,94.10
2018-05-17T06:14:18.641Z,93.90
2018-05-17T06:16:46.188Z,93.70
2018-05-17T06:19:14.505Z,93.70
2018-05-17T06:21:42.072Z,93.70
2018-05-17T06:24:09.650Z,94.70
2018-05-17T06:26:37.270Z,94.50
2018-05-17T06:29:04.831Z,94.70
2018-05-17T06:31:33.159Z,93.00
2018-05-17T06:34:00.739Z,93.00
2018-05-17T06:36:28.291Z,92.80
2018-05-17T06:38:55.825Z,92.70
2018-05-17T06:41:23.408Z,93.00
2018-05-17T06:43:51.004Z,91.70
2018-05-17T06:46:18.555Z,91.30
2018-05-17T06:48:46.128Z,91.90
2018-05-17T06:51:13.694Z,91.30
2018-05-17T06:53:41.271Z,90.70
2018-05-17T06:56:09.607Z,89.20
2018-05-17T06:58:37.156Z,89.20
2018-05-17T07:01:04.832Z,89.40
2018-05-17T07:03:32.318Z,89.10
2018-05-17T07:05:59.872Z,87.10
2018-05-17T07:08:27.424Z,87.80
2018-05-17T07:10:54.995Z,88.00
2018-05-17T07:13:22.545Z,87.80
2018-05-17T07:15:50.078Z,87.40
2018-05-17T07:18:18.660Z,88.60
2018-05-17T07:20:46.013Z,88.60
2018-05-17T07:23:13.553Z,87.30
2018-05-17T07:25:41.159Z,87.40
2018-05-17T07:28:08.704Z,86.80
2018-05-17T07:30:37.013Z,87.50
2018-05-17T07:33:04.600Z,87.50
2018-05-17T07:35:32.153Z,87.50
2018-05-17T07:37:59.713Z,88.30
2018-05-17T07:40:27.255Z,88.20
2018-05-17T07:42:55.631Z,88.10
2018-05-17T07:45:23.961Z,86.50
2018-05-17T07:47:51.537Z,86.50
2018-05-17T07:50:19.083Z,87.20
2018-05-17T07:52:46.655Z,87.70
2018-05-17T07:55:14.234Z,87.60
2018-05-17T07:57:41.810Z,86.10
2018-05-17T08:00:09.387Z,86.10
2018-05-17T08:02:36.962Z,86.30
2018-05-17T08:05:05.304Z,84.10
2018-05-17T08:07:32.870Z,84.10
2018-05-17T08:10:00.433Z,81.20
2018-05-17T08:12:28.026Z,82.90
2018-05-17T08:14:55.582Z,83.60
2018-05-17T08:17:23.199Z,85.20
2018-05-17T08:19:50.771Z,83.60
2018-05-17T08:22:18.348Z,82.90
2018-05-17T08:24:45.919Z,83.30
2018-05-17T08:27:13.546Z,82.70
2018-05-17T08:29:41.105Z,84.10
2018-05-17T08:32:08.641Z,83.70
2018-05-17T08:34:36.186Z,84.40
2018-05-17T08:37:03.726Z,85.70
2018-05-17T08:39:31.275Z,85.70
2018-05-17T08:41:58.848Z,84.90
2018-05-17T08:44:26.410Z,85.00
2018-05-17T08:46:53.967Z,83.70
2018-05-17T08:49:21.524Z,85.20
2018-05-17T08:51:49.063Z,85.60
2018-05-17T08:54:17.426Z,85.20
2018-05-17T08:56:44.951Z,85.10
2018-05-17T08:59:12.500Z,84.20
2018-05-17T09:01:40.087Z,84.40
2018-05-17T09:04:07.625Z,83.40
2018-05-17T09:06:35.205Z,85.00
2018-05-17T09:09:02.807Z,83.00
2018-05-17T09:11:30.382Z,83.30
2018-05-17T09:13:57.933Z,83.70
2018-05-17T09:16:25.543Z,83.60
2018-05-17T09:18:53.095Z,82.50
2018-05-17T09:21:21.431Z,80.70
2018-05-17T09:23:48.984Z,80.60
2018-05-17T09:26:16.532Z,81.60
2018-05-17T09:28:44.081Z,81.80
2018-05-17T09:31:11.619Z,80.70
2018-05-17T09:33:39.187Z,79.90
2018-05-17T09:36:07.526Z,81.30
2018-05-17T09:38:35.085Z,81.30
2018-05-17T09:41:02.636Z,80.70
2018-05-17T09:43:30.182Z,81.00
2018-05-17T09:45:57.731Z,79.00
2018-05-17T09:48:26.083Z,79.10
2018-05-17T09:50:53.617Z,79.10
2018-05-17T09:53:21.191Z,80.40
2018-05-17T09:55:48.733Z,80.70
2018-05-17T09:58:16.303Z,80.70
2018-05-17T10:00:47.800Z,80.70
2018-05-17T10:03:15.347Z,81.50
2018-05-17T10:05:42.896Z,80.40
2018-05-17T10:08:10.438Z,80.50
2018-05-17T10:10:38.054Z,81.00
2018-05-17T10:13:05.601Z,81.10
2018-05-17T10:15:33.249Z,79.30
2018-05-17T10:18:00.764Z,79.90
2018-05-17T10:20:29.107Z,81.50
2018-05-17T10:22:56.674Z,81.40
2018-05-17T10:25:24.213Z,80.70
2018-05-17T10:27:51.752Z,79.70
2018-05-17T10:30:20.087Z,74.10
2018-05-17T10:32:47.656Z,74.20
2018-05-17T10:35:15.208Z,74.60
2018-05-17T10:37:42.766Z,75.80
2018-05-17T10:40:10.399Z,74.30
2018-05-17T10:42:37.938Z,74.30
2018-05-17T10:45:05.539Z,74.10
2018-05-17T10:47:33.122Z,74.40
2018-05-17T10:50:00.661Z,72.50
2018-05-17T10:52:28.232Z,72.40
2018-05-17T10:54:55.778Z,74.00
2018-05-17T10:57:24.117Z,73.30
2018-05-17T10:59:51.657Z,73.30
2018-05-17T11:02:19.203Z,75.60
2018-05-17T11:04:46.761Z,75.30
2018-05-17T11:07:14.334Z,72.80
2018-05-17T11:09:41.946Z,71.60
2018-05-17T11:12:09.611Z,73.80
2018-05-17T11:14:37.151Z,73.50
2018-05-17T11:17:04.723Z,73.20
2018-05-17T11:19:32.256Z,68.40
2018-05-17T11:21:59.809Z,70.30
2018-05-17T11:24:27.383Z,67.80
2018-05-17T11:26:55.835Z,69.60
2018-05-17T11:29:23.401Z,69.40
2018-05-17T11:31:51.024Z,69.50
2018-05-17T11:34:18.648Z,70.20
2018-05-17T11:36:46.195Z,69.60
2018-05-17T11:39:13.733Z,67.70
2018-05-17T11:41:41.326Z,69.00
2018-05-17T11:44:09.704Z,68.20
2018-05-17T11:46:37.240Z,68.10
2018-05-17T11:49:04.776Z,69.90
2018-05-17T11:51:32.347Z,70.00
2018-05-17T11:53:59.894Z,69.10
2018-05-17T11:56:27.486Z,68.10
2018-05-17T11:58:55.059Z,67.40
2018-05-17T12:01:22.672Z,69.20
2018-05-17T12:03:50.995Z,71.70
2018-05-17T12:06:18.543Z,71.70
2018-05-17T12:08:46.077Z,73.20
2018-05-17T12:11:14.386Z,71.00
2018-05-17T12:13:41.947Z,70.90
2018-05-17T12:16:09.495Z,72.00
2018-05-17T12:18:37.042Z,73.80
2018-05-17T12:21:05.341Z,71.30
2018-05-17T12:23:33.670Z,71.30
2018-05-17T12:26:01.231Z,71.30
2018-05-17T12:28:28.784Z,71.50
2018-05-17T12:30:56.362Z,72.30
2018-05-17T12:33:23.899Z,72.70
2018-05-17T12:35:51.474Z,72.30
2018-05-17T12:38:19.023Z,72.70
2018-05-17T12:40:46.687Z,74.40
2018-05-17T12:43:14.238Z,75.40
2018-05-17T12:45:41.844Z,74.60
2018-05-17T12:48:09.411Z,73.90
2018-05-17T12:50:36.992Z,75.70
2018-05-17T12:53:04.559Z,76.00
2018-05-17T12:55:32.116Z,76.90
2018-05-17T12:57:59.679Z,78.30
2018-05-17T13:00:27.967Z,78.10
2018-05-17T13:02:55.535Z,78.90
2018-05-17T13:05:23.941Z,79.10
2018-05-17T13:07:52.249Z,80.00
2018-05-17T13:10:19.907Z,80.00
2018-05-17T13:12:47.484Z,80.80
2018-05-17T13:15:15.059Z,80.00
2018-05-17T13:17:42.611Z,79.80
2018-05-17T13:20:10.206Z,80.80
2018-05-17T13:22:37.787Z,81.20
2018-05-17T13:25:05.388Z,82.20
2018-05-17T13:27:32.942Z,83.40
2018-05-17T13:30:01.255Z,84.60
2018-05-17T13:32:28.799Z,84.60
2018-05-17T13:34:57.116Z,86.20
2018-05-17T13:37:24.787Z,86.20
2018-05-17T13:39:52.233Z,87.20
2018-05-17T13:42:19.790Z,87.20
2018-05-17T13:44:47.326Z,88.10
2018-05-17T13:47:15.662Z,89.80
2018-05-17T13:49:43.225Z,89.80
2018-05-17T13:52:10.761Z,90.20
2018-05-17T13:54:38.350Z,89.00
2018-05-17T13:57:05.904Z,89.60
2018-05-17T13:59:33.468Z,89.80
2018-05-17T14:02:01.060Z,90.20
2018-05-17T14:04:28.864Z,90.10
2018-05-17T14:06:57.807Z,91.20
2018-05-17T14:09:25.353Z,91.10
2018-05-17T14:11:52.911Z,90.80
2018-05-17T14:14:20.449Z,90.50
2018-05-17T14:16:49.416Z,87.90
2018-05-17T14:19:16.997Z,88.00
2018-05-17T14:21:44.546Z,89.70
2018-05-17T14:24:12.095Z,89.60
2018-05-17T14:26:39.643Z,89.80
2018-05-17T14:29:07.210Z,90.90
2018-05-17T14:31:34.779Z,88.90
2018-05-17T14:34:02.357Z,88.90
2018-05-17T14:36:29.910Z,89.40
2018-05-17T14:38:57.485Z,88.70
2018-05-17T14:41:25.045Z,88.80
2018-05-17T14:43:53.628Z,88.30
2018-05-17T14:46:21.173Z,90.80
2018-05-17T14:48:48.771Z,90.40
2018-05-17T14:51:16.440Z,90.30
2018-05-17T14:53:44.029Z,90.10
2018-05-17T14:56:12.370Z,90.50
2018-05-17T14:58:39.939Z,90.50
2018-05-17T15:01:07.559Z,90.10
2018-05-17T15:03:35.094Z,90.40
2018-05-17T15:06:03.413Z,90.60
2018-05-17T15:08:31.070Z,90.60
2018-05-17T15:10:59.343Z,91.00
2018-05-17T15:13:26.957Z,90.00
2018-05-17T15:15:54.510Z,90.00
2018-05-17T15:18:22.046Z,90.10
2018-05-17T15:20:49.621Z,88.70
2018-05-17T15:23:17.191Z,89.80
2018-05-17T15:25:44.764Z,87.00
2018-05-17T15:28:12.407Z,89.20
2018-05-17T15:30:40.012Z,88.90
2018-05-17T15:33:07.556Z,88.70
2018-05-17T15:35:35.123Z,88.70
2018-05-17T15:38:02.699Z,87.40
2018-05-17T15:40:30.252Z,88.10
2018-05-17T15:42:57.823Z,86.40
2018-05-17T15:45:25.393Z,86.80
2018-05-17T15:47:52.957Z,86.80
2018-05-17T15:50:20.535Z,87.50
2018-05-17T15:52:48.099Z,87.40
2018-05-17T15:55:15.672Z,87.90
2018-05-17T15:57:43.252Z,87.50
2018-05-17T16:00:11.592Z,86.60
2018-05-17T16:02:39.140Z,86.60
2018-05-17T16:05:06.682Z,85.70
2018-05-17T16:07:34.221Z,87.50
2018-05-17T16:10:01.785Z,87.00
2018-05-17T16:12:29.386Z,87.30
2018-05-17T16:14:57.051Z,85.70
2018-05-17T16:17:24.499Z,86.10
2018-05-17T16:19:52.816Z,86.60
2018-05-17T16:22:20.370Z,86.60
2018-05-17T16:24:47.923Z,86.70
2018-05-17T16:27:15.501Z,86.80
2018-05-17T16:29:43.083Z,86.80
2018-05-17T16:32:10.655Z,86.50
2018-05-17T16:34:38.218Z,86.90
2018-05-17T16:37:05.796Z,86.90
2018-05-17T16:39:33.349Z,86.70
2018-05-17T16:42:00.902Z,87.00
2018-05-17T16:44:28.470Z,86.50
2018-05-17T16:46:56.046Z,86.80
2018-05-17T16:49:23.618Z,86.70
2018-05-17T16:51:51.230Z,86.60
2018-05-17T16:54:18.818Z,87.10
2018-05-17T16:56:46.436Z,87.60
2018-05-17T16:59:14.755Z,87.10
2018-05-17T17:01:42.293Z,87.10
2018-05-17T17:04:10.606Z,88.00
2018-05-17T17:06:38.194Z,88.00
2018-05-17T17:09:05.802Z,87.60
2018-05-17T17:11:34.167Z,87.30
2018-05-17T17:14:02.487Z,86.90
2018-05-17T17:16:30.039Z,86.90
2018-05-17T17:18:57.587Z,87.20
2018-05-17T17:21:25.899Z,87.50
2018-05-17T17:23:53.560Z,87.50
2018-05-17T17:26:21.034Z,88.20
2018-05-17T17:28:48.611Z,87.80
2018-05-17T17:31:16.149Z,87.80
2018-05-17T17:33:43.694Z,88.00
2018-05-17T17:36:12.051Z,88.20
2018-05-17T17:38:39.630Z,88.30
2018-05-17T17:41:07.956Z,87.70
2018-05-17T17:43:35.526Z,87.70
2018-05-17T17:46:03.071Z,88.60
2018-05-17T17:48:30.670Z,88.40
2018-05-17T17:50:58.213Z,88.60
2018-05-17T17:53:27.722Z,88.50
2018-05-17T17:55:55.309Z,88.50
2018-05-17T17:58:23.512Z,88.70
2018-05-17T18:00:51.111Z,88.40
2018-05-17T18:03:18.665Z,88.70
2018-05-17T18:05:47.096Z,88.80
2018-05-17T18:08:15.482Z,88.80
2018-05-17T18:10:43.080Z,88.70
2018-05-17T18:13:11.402Z,88.70
2018-05-17T18:15:39.044Z,88.80
2018-05-17T18:18:06.630Z,88.20
2018-05-17T18:20:34.221Z,88.70
2018-05-17T18:23:01.805Z,87.00
2018-05-17T18:25:29.345Z,88.20
2018-05-17T18:27:56.902Z,88.00
2018-05-17T18:30:24.446Z,87.60
2018-05-17T18:32:52.023Z,88.20
2018-05-17T18:35:19.583Z,87.40
2018-05-17T18:37:47.776Z,87.70
2018-05-17T18:40:15.320Z,88.00
2018-05-17T18:42:42.867Z,88.30
2018-05-17T18:45:10.414Z,88.40
2018-05-17T18:47:38.732Z,88.80
2018-05-17T18:50:06.306Z,88.90
2018-05-17T18:52:33.859Z,88.70
2018-05-17T18:55:01.468Z,89.20
2018-05-17T18:57:29.066Z,89.30
2018-05-17T18:59:56.625Z,89.60
2018-05-17T19:02:24.967Z,89.60
2018-05-17T19:04:52.523Z,89.50
2018-05-17T19:07:20.155Z,89.60
2018-05-17T19:09:47.733Z,89.30
2018-05-17T19:12:15.370Z,89.20
2018-05-17T19:14:43.701Z,89.60
2018-05-17T19:17:11.309Z,89.60
2018-05-17T19:19:38.887Z,89.90
2018-05-17T19:22:06.458Z,90.00
2018-05-17T19:24:34.007Z,89.80
2018-05-17T19:27:02.346Z,90.20
2018-05-17T19:29:29.922Z,90.20
2018-05-17T19:31:57.479Z,89.70
2018-05-17T19:34:25.041Z,89.60
2018-05-17T19:36:52.638Z,89.70
2018-05-17T19:39:20.973Z,89.50
2018-05-17T19:41:48.674Z,89.50
2018-05-17T19:44:16.145Z,89.10
2018-05-17T19:46:43.696Z,88.90
2018-05-17T19:49:11.254Z,89.00
2018-05-17T19:51:38.823Z,88.60
2018-05-17T19:54:06.357Z,88.70
2018-05-17T19:56:33.909Z,88.50
2018-05-17T19:59:01.490Z,87.90
2018-05-17T20:01:29.076Z,87.90
2018-05-17T20:03:56.632Z,88.10
2018-05-17T20:06:24.203Z,87.50
2018-05-17T20:08:51.826Z,88.50
2018-05-17T20:11:19.457Z,88.60
2018-05-17T20:13:47.015Z,88.20
2018-05-17T20:16:14.568Z,87.70
2018-05-17T20:18:42.231Z,88.10
2018-05-17T20:21:10.499Z,88.00
2018-05-17T20:23:38.063Z,88.10
2018-05-17T20:26:05.655Z,87.70
2018-05-17T20:28:33.212Z,87.70
2018-05-17T20:31:00.781Z,88.30
2018-05-17T20:33:28.338Z,88.10
2018-05-17T20:35:55.907Z,88.00
2018-05-17T20:38:23.479Z,87.60
2018-05-17T20:40:51.804Z,88.20
2018-05-17T20:43:19.371Z,88.10
2018-05-17T20:45:46.962Z,88.00
2018-05-17T20:48:14.530Z,88.10
2018-05-17T20:50:42.074Z,88.20
2018-05-17T20:53:09.639Z,87.30
2018-05-17T20:55:37.199Z,87.80
2018-05-17T20:58:04.796Z,87.80
2018-05-17T21:00:32.379Z,87.50
2018-05-17T21:03:00.708Z,87.90
2018-05-17T21:05:28.279Z,87.80
2018-05-17T21:07:55.828Z,87.50
2018-05-17T21:10:23.399Z,87.20
2018-05-17T21:12:51.023Z,87.40
2018-05-17T21:15:18.545Z,87.10
2018-05-17T21:17:46.111Z,87.40
2018-05-17T21:20:13.665Z,86.80
2018-05-17T21:22:41.225Z,87.20
2018-05-17T21:25:08.785Z,87.50
2018-05-17T21:27:36.326Z,87.20
2018-05-17T21:30:03.884Z,87.00
2018-05-17T21:32:31.462Z,87.20
2018-05-17T21:34:59.026Z,87.00
2018-05-17T21:37:26.591Z,87.30
2018-05-17T21:39:54.169Z,87.60
2018-05-17T21:42:21.752Z,87.60
2018-05-17T21:44:49.348Z,87.60
2018-05-17T21:47:16.916Z,87.00
2018-05-17T21:49:44.495Z,87.10
2018-05-17T21:52:12.034Z,86.70
2018-05-17T21:54:39.582Z,87.30
2018-05-17T21:57:07.158Z,87.40
2018-05-17T21:59:34.711Z,87.30
2018-05-17T22:02:02.303Z,87.30
2018-05-17T22:04:30.613Z,87.10
2018-05-17T22:06:58.181Z,87.10
2018-05-17T22:09:25.730Z,87.10
2018-05-17T22:11:54.039Z,87.00
2018-05-17T22:14:21.582Z,87.00
2018-05-17T22:16:49.155Z,86.60
2018-05-17T22:19:16.708Z,87.20
2018-05-17T22:21:44.281Z,87.00
2018-05-17T22:24:11.833Z,87.00
2018-05-17T22:26:39.411Z,87.20
2018-05-17T22:29:06.958Z,87.30
2018-05-17T22:31:35.298Z,86.40
2018-05-17T22:34:02.866Z,86.40
2018-05-17T22:36:30.445Z,86.90
2018-05-17T22:38:58.019Z,86.60
2018-05-17T22:41:26.352Z,86.60
2018-05-17T22:43:53.906Z,86.60
2018-05-17T22:46:21.478Z,86.80
2018-05-17T22:48:49.021Z,87.00
2018-05-17T22:51:16.576Z,86.60
2018-05-17T22:53:44.126Z,87.20
2018-05-17T22:56:32.982Z,86.70
2018-05-17T22:59:01.316Z,87.00
2018-05-17T23:01:28.896Z,87.00
2018-05-17T23:03:56.469Z,87.00
2018-05-17T23:06:24.039Z,87.00
2018-05-17T23:08:51.626Z,87.30
2018-05-17T23:11:19.207Z,87.50
2018-05-17T23:13:46.779Z,87.40
2018-05-17T23:16:14.348Z,87.60
2018-05-17T23:18:41.898Z,87.50
2018-05-17T23:21:09.474Z,87.70
2018-05-17T23:23:37.031Z,87.60
2018-05-17T23:26:04.573Z,87.70
2018-05-17T23:28:32.891Z,87.70
2018-05-17T23:31:00.462Z,87.70
2018-05-17T23:33:28.038Z,87.50
2018-05-17T23:35:55.585Z,87.80
2018-05-17T23:38:23.150Z,87.90
2018-05-17T23:41:12.269Z,87.80
2018-05-17T23:43:39.856Z,87.70
2018-05-17T23:46:07.397Z,88.20
2018-05-17T23:48:35.761Z,88.70
2018-05-17T23:51:04.090Z,88.60
2018-05-17T23:53:31.638Z,88.50
2018-05-17T23:55:59.202Z,88.60
2018-05-17T23:58:26.822Z,88.80
